Terminal Aerodrome Forecast
Issued by NWS

Home | Current Version | Previous Version | Text Only | Print | Product List | Glossary On
Versions: 1 2 3 4 5 6 7 8 9 10 11 12 13 14
000
FTUS43 KEAX 101100
TAFMKC
TAF
KMKC 101122Z 1012/1112 14006KT P6SM SCT070 BKN200
     FM101500 15011KT P6SM SCT100
     FM110800 16011KT P6SM VCTS SCT060CB BKN090=

USA.gov is the U.S. government's official web portal to all federal, state and local government web resources and services.